Wilson Lahn — 8PUO — position and weather

sailwx.info

Track history (hours):
 
Tides and Currents Weather Stations Pressure Air Temp Water Temp Dewpoint Dewpoint Depression Visibility Wind Speed Wind Dir Waves Ship Positions

Wilson Lahn

Last reported at 2017-Jul-23 06:30 UTC. Time now 2017-Jul-23 06:42 UTC.
Position N 62°36' E 005°42'.

Length 83 m; draft 4.7 m.

Type: Cargo ship. MMSI: 314259000.

Date/timePositionNaut miles runAvg speedWind from/ knotsBaromVisibWave heightAir tempDewpointWater temp
2017-Jul-23 06:30N 62°36' E 005°42'611.6
2017-Jul-23 06:00N 62°40' E 005°50'510.2
2017-Jul-23 05:30N 62°44' E 005°58'510.2
2017-Jul-23 05:00N 62°48' E 006°05'510.0
2017-Jul-23 04:30N 62°51' E 006°12'510.0
2017-Jul-23 04:00N 62°55' E 006°19'510.2
2017-Jul-23 03:30N 62°59' E 006°27'510.2
2017-Jul-23 03:01N 63°03' E 006°34'510.2
2017-Jul-23 02:30N 63°06' E 006°42'510.4
2017-Jul-23 02:00N 63°10' E 006°50'510.1
2017-Jul-23 01:30N 63°14' E 006°57'510.2
2017-Jul-23 01:00N 63°18' E 007°05'510.1
2017-Jul-23 00:30N 63°22' E 007°12'510.1
2017-Jul-23 00:00N 63°26' E 007°19'5 9.6
2017-Jul-22 23:30N 63°29' E 007°26'5 9.6
2017-Jul-22 23:00N 63°33' E 007°34'5 9.8
2017-Jul-22 22:30N 63°36' E 007°41'5 9.8
2017-Jul-22 22:00N 63°40' E 007°48'5 9.9
2017-Jul-22 21:30N 63°44' E 007°56'5 9.8
2017-Jul-22 21:00N 63°47' E 008°03'5 9.8
2017-Jul-22 20:30N 63°51' E 008°10'5 9.7
2017-Jul-22 20:00N 63°55' E 008°18'5 9.7
2017-Jul-22 19:30N 63°58' E 008°25'83 9.4
2017-Jul-22 10:41N 65°03' E 010°26'2 9.5
2017-Jul-22 10:30N 65°04' E 010°27'5 9.4
2017-Jul-22 10:00N 65°09' E 010°31'5 9.4
2017-Jul-22 09:30N 65°13' E 010°35'5 9.6
2017-Jul-22 09:00N 65°18' E 010°39'5 9.7
2017-Jul-22 08:29N 65°22' E 010°44'5 9.6
2017-Jul-22 08:00N 65°26' E 010°49'5 9.4
2017-Jul-22 07:30N 65°31' E 010°53'5 9.1
2017-Jul-22 07:00N 65°35' E 010°56'43 9.6
2017-Jul-22 02:30N 66°14' E 011°43'5 9.9
2017-Jul-22 02:00N 66°15' E 011°55'5 9.8
2017-Jul-22 01:30N 66°16' E 012°07'510.1
2017-Jul-22 01:00N 66°16' E 012°19'510.2
2017-Jul-22 00:31N 66°15' E 012°31'510.0
2017-Jul-22 00:00N 66°17' E 012°43'611.1
2017-Jul-21 23:30N 66°20' E 012°54'510.0
2017-Jul-21 23:00N 66°25' E 012°59'510.5
2017-Jul-21 22:30N 66°30' E 012°59'5 8.9
2017-Jul-21 22:00N 66°34' E 013°05'510.9
2017-Jul-21 21:30N 66°39' E 013°07'611.1
2017-Jul-21 21:00N 66°45' E 013°12'510.8
2017-Jul-21 20:30N 66°48' E 013°23'611.2
2017-Jul-21 20:00N 66°49' E 013°37'611.2
2017-Jul-21 19:30N 66°48' E 013°51'2 3.8
2017-Jul-21 18:58N 66°49' E 013°56'0 0.0
2017-Jul-21 18:23N 66°49' E 013°56'0 0.0
2017-Jul-21 17:59N 66°49' E 013°56'0 0.0
2017-Jul-21 17:29N 66°49' E 013°56'0 0.0
2017-Jul-21 16:41N 66°49' E 013°56'0 0.0
2017-Jul-21 16:23N 66°49' E 013°56'0 0.0
2017-Jul-21 14:05N 66°49' E 013°56'0 0.0
2017-Jul-21 13:35N 66°49' E 013°56'0 0.1
2017-Jul-21 13:29N 66°49' E 013°56'0 0.0
2017-Jul-21 12:53N 66°49' E 013°56'0 0.0
2017-Jul-21 12:29N 66°49' E 013°56'0 0.0
2017-Jul-21 11:56N 66°49' E 013°56'0 0.0
2017-Jul-21 09:14N 66°49' E 013°56'0 0.0
2017-Jul-20 21:53N 66°49' E 013°56'0 0.6
2017-Jul-20 21:30N 66°48' E 013°56'510.0
2017-Jul-20 21:00N 66°49' E 013°43'612.0
2017-Jul-20 20:30N 66°49' E 013°28'611.9
2017-Jul-20 20:00N 66°46' E 013°15'612.0
2017-Jul-20 19:30N 66°41' E 013°08'611.6
2017-Jul-20 18:59N 66°35' E 013°04'5 9.8
2017-Jul-20 18:30N 66°31' E 012°58'612.4
2017-Jul-20 18:00N 66°25' E 012°59'610.9
2017-Jul-20 17:30N 66°20' E 012°52'611.8
2017-Jul-20 17:00N 66°16' E 012°40'4 8.3
2017-Jul-20 16:30N 66°15' E 012°31'1 1.3
2017-Jul-20 16:00N 66°15' E 012°29'1 1.4
2017-Jul-20 15:30N 66°16' E 012°31'1 1.1
2017-Jul-20 15:00N 66°16' E 012°32'1 0.9
2017-Jul-20 14:00N 66°15' E 012°32'510.4
2017-Jul-20 13:30N 66°16' E 012°20'510.6
2017-Jul-20 13:00N 66°16' E 012°06'511.0
2017-Jul-20 12:30N 66°15' E 011°53'4210.1
2017-Jul-20 08:20N 65°39' E 010°60'412.0
2017-Jul-20 08:00N 65°35' E 010°56'612.1
2017-Jul-20 07:30N 65°29' E 010°51'612.0
2017-Jul-20 07:00N 65°24' E 010°45'611.7
2017-Jul-20 06:30N 65°18' E 010°40'611.7
2017-Jul-20 06:00N 65°13' E 010°35'611.9
2017-Jul-20 05:30N 65°07' E 010°30'4212.1
2017-Jul-20 02:04N 64°29' E 009°55'112.3
2017-Jul-20 02:00N 64°28' E 009°54'612.0
2017-Jul-20 01:30N 64°22' E 009°49'611.6
2017-Jul-20 01:00N 64°17' E 009°44'611.5
2017-Jul-20 00:29N 64°11' E 009°39'611.7
2017-Jul-20 00:00N 64°06' E 009°35'611.8
2017-Jul-19 23:30N 64°00' E 009°30'612.0
2017-Jul-19 23:01N 63°55' E 009°25'612.1
2017-Jul-19 22:30N 63°49' E 009°20'612.0
2017-Jul-19 22:01N 63°44' E 009°15'612.0
2017-Jul-19 21:30N 63°38' E 009°17'612.4
2017-Jul-19 21:00N 63°37' E 009°31'612.6
2017-Jul-19 20:30N 63°40' E 009°44'611.8
2017-Jul-19 20:00N 63°34' E 009°51'612.4
2017-Jul-19 19:30N 63°29' E 009°58'612.0
2017-Jul-19 19:01N 63°29' E 010°11'510.0
2017-Jul-19 18:30N 63°28' E 010°22'2 4.3
2017-Jul-19 18:00N 63°27' E 010°25'0 0.0
2017-Jul-19 17:28N 63°27' E 010°25'0 0.0
2017-Jul-19 16:58N 63°27' E 010°25'0 0.0
2017-Jul-19 16:28N 63°27' E 010°25'0 0.0
2017-Jul-19 15:58N 63°27' E 010°25'0 0.0
2017-Jul-19 15:28N 63°27' E 010°25'0 0.0
2017-Jul-19 14:58N 63°27' E 010°25'0 0.0
2017-Jul-19 14:28N 63°27' E 010°25'0 0.0
2017-Jul-19 13:58N 63°27' E 010°25'0 0.0
2017-Jul-19 13:28N 63°27' E 010°25'0 0.0
2017-Jul-19 13:00N 63°27' E 010°25'1 1.9
2017-Jul-19 12:31N 63°27' E 010°24'5 9.2
2017-Jul-19 12:01N 63°28' E 010°14'612.2
2017-Jul-19 11:30N 63°29' E 010°01'510.9
2017-Jul-19 11:00N 63°33' E 009°52'611.8
2017-Jul-19 10:30N 63°38' E 009°47'5 9.7
2017-Jul-19 10:01N 63°38' E 009°37'612.3
2017-Jul-19 09:31N 63°35' E 009°25'612.8
2017-Jul-19 09:00N 63°32' E 009°12'612.2
2017-Jul-19 08:30N 63°29' E 008°60'612.2
2017-Jul-19 08:00N 63°27' E 008°47'612.6
2017-Jul-19 07:30N 63°24' E 008°34'612.4
2017-Jul-19 07:00N 63°21' E 008°22'612.6
2017-Jul-19 06:30N 63°17' E 008°12'612.5
2017-Jul-19 06:00N 63°14' E 007°59'611.9
2017-Jul-19 05:31N 63°14' E 007°46'612.0
2017-Jul-19 05:00N 63°15' E 007°33'612.1
2017-Jul-19 04:30N 63°12' E 007°21'612.9
2017-Jul-19 04:00N 63°09' E 007°09'713.0
2017-Jul-19 03:30N 63°05' E 006°57'612.2
2017-Jul-19 03:00N 63°01' E 006°47'611.8
2017-Jul-19 02:30N 62°58' E 006°36'611.5
2017-Jul-19 02:00N 62°54' E 006°26'612.0
2017-Jul-19 01:30N 62°51' E 006°15'611.8
2017-Jul-19 01:00N 62°47' E 006°06'611.6
2017-Jul-19 00:30N 62°43' E 005°57'611.8
2017-Jul-19 00:00N 62°38' E 005°48'611.9
2017-Jul-18 23:30N 62°34' E 005°39'612.0
2017-Jul-18 23:00N 62°30' E 005°31'611.8
2017-Jul-18 22:30N 62°25' E 005°22'611.9
2017-Jul-18 22:00N 62°21' E 005°13'611.9
2017-Jul-18 21:30N 62°16' E 005°06'611.8
2017-Jul-18 21:00N 62°11' E 004°59'611.9
2017-Jul-18 20:30N 62°06' E 004°52'611.9
2017-Jul-18 20:00N 62°01' E 004°46'612.1
2017-Jul-18 19:30N 61°55' E 004°42'611.9
2017-Jul-18 19:00N 61°49' E 004°38'611.8
2017-Jul-18 18:30N 61°44' E 004°33'611.5
2017-Jul-18 18:00N 61°38' E 004°30'611.7
2017-Jul-18 17:30N 61°33' E 004°29'611.8
2017-Jul-18 17:00N 61°27' E 004°28'612.0
2017-Jul-18 16:30N 61°21' E 004°28'612.1
2017-Jul-18 16:00N 61°15' E 004°28'612.1
2017-Jul-18 15:30N 61°09' E 004°27'612.4
2017-Jul-18 15:00N 61°02' E 004°27'1211.6
2017-Jul-18 14:00N 60°52' E 004°37'611.3
2017-Jul-18 13:31N 60°48' E 004°45'612.4
2017-Jul-18 13:00N 60°42' E 004°50'612.4
2017-Jul-18 12:30N 60°36' E 004°54'612.6
2017-Jul-18 12:00N 60°30' E 004°58'612.3
2017-Jul-18 11:30N 60°25' E 005°05'511.0
2017-Jul-18 11:01N 60°20' E 005°10'1 2.4
2017-Jul-18 10:30N 60°21' E 005°08'0 0.0
2017-Jul-18 10:00N 60°21' E 005°08'0 0.0
2017-Jul-18 09:30N 60°21' E 005°08'0 0.0
2017-Jul-18 09:00N 60°21' E 005°08'0 0.0
2017-Jul-18 08:30N 60°21' E 005°08'0 0.0
2017-Jul-18 08:00N 60°21' E 005°08'0 0.0
2017-Jul-18 07:30N 60°21' E 005°08'0 0.0
2017-Jul-18 07:00N 60°21' E 005°08'0 0.0
2017-Jul-18 06:30N 60°21' E 005°08'0 0.0
2017-Jul-18 06:00N 60°21' E 005°08'0 0.0
2017-Jul-18 05:30N 60°21' E 005°08'0 0.0
2017-Jul-18 05:00N 60°21' E 005°08'0 0.0
2017-Jul-18 04:30N 60°21' E 005°08'0 0.0
2017-Jul-18 04:00N 60°21' E 005°08'0 0.0
2017-Jul-18 03:30N 60°21' E 005°08'0 0.0
2017-Jul-18 03:00N 60°21' E 005°08'0 0.0
2017-Jul-18 02:30N 60°21' E 005°08'0 0.0
2017-Jul-18 02:00N 60°21' E 005°08'0 0.0
2017-Jul-18 01:30N 60°21' E 005°08'0 0.0
2017-Jul-18 01:00N 60°21' E 005°08'0 0.0
2017-Jul-18 00:30N 60°21' E 005°08'0 0.0
2017-Jul-18 00:00N 60°21' E 005°08'0 0.0
2017-Jul-17 23:30N 60°21' E 005°08'0 0.0
2017-Jul-17 23:00N 60°21' E 005°08'0 0.0
2017-Jul-17 22:30N 60°21' E 005°08'0 0.0
2017-Jul-17 22:00N 60°21' E 005°08'0 0.0
2017-Jul-17 21:30N 60°21' E 005°08'0 0.0
2017-Jul-17 21:00N 60°21' E 005°08'0 0.0
2017-Jul-17 20:30N 60°21' E 005°08'0 0.0
2017-Jul-17 19:57N 60°21' E 005°08'1 1.2
2017-Jul-17 19:30N 60°20' E 005°08'510.6
2017-Jul-17 19:00N 60°15' E 005°09'510.5
2017-Jul-17 18:30N 60°10' E 005°15'611.0
2017-Jul-17 18:00N 60°05' E 005°19'611.4
2017-Jul-17 17:30N 59°60' E 005°21'611.1
2017-Jul-17 17:00N 59°56' E 005°29'510.5
2017-Jul-17 16:30N 59°51' E 005°33'510.8
2017-Jul-17 16:00N 59°46' E 005°32'611.8
2017-Jul-17 15:30N 59°41' E 005°24'611.7
2017-Jul-17 15:00N 59°36' E 005°17'611.9
2017-Jul-17 14:29N 59°31' E 005°13'611.2
2017-Jul-17 14:00N 59°25' E 005°14'611.2
2017-Jul-17 13:29N 59°20' E 005°19'611.5
2017-Jul-17 13:00N 59°15' E 005°21'4 7.9
2017-Jul-17 12:30N 59°18' E 005°23'1 1.8
2017-Jul-17 11:59N 59°19' E 005°23'0 0.0
2017-Jul-17 11:29N 59°19' E 005°23'0 0.0
2017-Jul-17 10:59N 59°19' E 005°23'0 0.0
2017-Jul-17 10:29N 59°19' E 005°23'0 0.0
2017-Jul-17 09:59N 59°19' E 005°23'0 0.0
2017-Jul-17 09:26N 59°19' E 005°23'0 0.0
2017-Jul-17 08:59N 59°19' E 005°23'0 0.0
2017-Jul-17 08:26N 59°19' E 005°23'0 0.0
2017-Jul-17 07:56N 59°19' E 005°23'0 0.0
2017-Jul-17 07:29N 59°19' E 005°23'0 0.0
2017-Jul-17 06:59N 59°19' E 005°23'0 0.0
2017-Jul-17 06:29N 59°19' E 005°23'0 0.0
2017-Jul-17 05:59N 59°19' E 005°23'0 0.0
2017-Jul-17 05:29N 59°19' E 005°23'0 0.0
2017-Jul-17 04:59N 59°19' E 005°23'0 0.0
2017-Jul-17 04:29N 59°19' E 005°23'0 0.0
2017-Jul-17 03:59N 59°19' E 005°23'0 0.0
2017-Jul-17 03:29N 59°19' E 005°23'0 0.0
2017-Jul-17 02:59N 59°19' E 005°23'0 0.7
2017-Jul-17 02:30N 59°19' E 005°23'510.2
2017-Jul-17 02:00N 59°14' E 005°22'611.5
2017-Jul-17 01:30N 59°08' E 005°21'611.9
2017-Jul-17 01:00N 59°02' E 005°21'612.1
2017-Jul-17 00:31N 58°56' E 005°19'612.3
2017-Jul-17 00:00N 58°50' E 005°17'612.5
2017-Jul-16 23:30N 58°44' E 005°15'612.2
2017-Jul-16 23:00N 58°38' E 005°14'612.2
2017-Jul-16 22:30N 58°32' E 005°12'611.7
2017-Jul-16 22:00N 58°26' E 005°11'32311.2
2017-Jul-15 17:15N 53°04' E 004°25'311.6
2017-Jul-15 16:59N 53°02' E 004°22'511.5
2017-Jul-15 16:30N 52°57' E 004°18'611.3
2017-Jul-15 16:00N 52°52' E 004°13'611.1
2017-Jul-15 15:30N 52°47' E 004°09'611.0
2017-Jul-15 15:00N 52°42' E 004°05'1110.9
2017-Jul-15 14:00N 52°32' E 003°56'510.7
2017-Jul-15 13:30N 52°27' E 003°54'510.6
2017-Jul-15 12:59N 52°22' E 003°53'510.5
2017-Jul-15 12:29N 52°17' E 003°53'510.7
2017-Jul-15 12:00N 52°11' E 003°54'510.8
2017-Jul-15 11:30N 52°06' E 003°56'611.2
2017-Jul-15 11:00N 52°01' E 004°00'713.1
2017-Jul-15 10:31N 51°58' E 004°09'714.1
2017-Jul-15 10:01N 51°54' E 004°19'4 7.7
2017-Jul-15 09:30N 51°55' E 004°25'0 0.0
2017-Jul-15 09:00N 51°55' E 004°25'0 0.0
2017-Jul-15 08:30N 51°55' E 004°25'0 0.0
2017-Jul-15 08:00N 51°55' E 004°25'0 0.0
2017-Jul-15 07:30N 51°55' E 004°25'0 0.0
2017-Jul-15 07:00N 51°55' E 004°25'0 0.0
2017-Jul-15 06:30N 51°55' E 004°25'0 0.0
2017-Jul-15 06:00N 51°55' E 004°25'0 0.0
2017-Jul-15 05:30N 51°55' E 004°25'0 0.0
2017-Jul-15 05:00N 51°55' E 004°25'0 0.0
2017-Jul-15 04:30N 51°55' E 004°25'0 0.0
2017-Jul-15 04:00N 51°55' E 004°25'0 0.0
2017-Jul-15 03:30N 51°55' E 004°25'0 0.0
2017-Jul-15 03:00N 51°55' E 004°25'0 0.0
2017-Jul-15 02:30N 51°55' E 004°25'0 0.0
2017-Jul-15 02:00N 51°55' E 004°25'0 0.0
2017-Jul-15 01:30N 51°55' E 004°25'0 0.0
2017-Jul-15 01:00N 51°55' E 004°25'0 0.0
2017-Jul-15 00:30N 51°55' E 004°25'0 0.0
2017-Jul-15 00:00N 51°55' E 004°25'0 0.0
2017-Jul-14 23:30N 51°55' E 004°25'0 0.0
2017-Jul-14 23:00N 51°55' E 004°25'0 0.0
2017-Jul-14 22:30N 51°55' E 004°25'0 0.0
2017-Jul-14 22:00N 51°55' E 004°25'0 0.0
2017-Jul-14 21:30N 51°55' E 004°25'0 0.0
2017-Jul-14 21:00N 51°55' E 004°25'0 0.0
2017-Jul-14 20:30N 51°55' E 004°25'0 0.0
2017-Jul-14 20:00N 51°55' E 004°25'0 0.0
2017-Jul-14 19:30N 51°55' E 004°25'0 0.0
2017-Jul-14 19:00N 51°55' E 004°25'0 0.0
2017-Jul-14 18:30N 51°55' E 004°25'0 0.0
2017-Jul-14 18:00N 51°55' E 004°25'0 0.0
2017-Jul-14 17:30N 51°55' E 004°25'0 0.0
2017-Jul-14 17:00N 51°55' E 004°25'0 0.0
2017-Jul-14 16:30N 51°55' E 004°25'0 0.0
2017-Jul-14 16:00N 51°55' E 004°25'0 0.1
2017-Jul-14 15:29N 51°55' E 004°25'1 3.0
2017-Jul-14 15:00N 51°54' E 004°23'0 0.0
2017-Jul-14 14:30N 51°54' E 004°23'0 0.0
2017-Jul-14 14:00N 51°54' E 004°23'0 0.0
2017-Jul-14 13:30N 51°54' E 004°23'0 0.0
2017-Jul-14 13:00N 51°54' E 004°23'0 0.0
2017-Jul-14 12:30N 51°54' E 004°23'0 0.0
2017-Jul-14 12:00N 51°54' E 004°23'0 0.0
2017-Jul-14 11:30N 51°54' E 004°23'0 0.0
2017-Jul-14 11:00N 51°54' E 004°23'0 0.0
2017-Jul-14 10:30N 51°54' E 004°23'0 0.0
2017-Jul-14 10:00N 51°54' E 004°23'0 0.1
2017-Jul-14 09:30N 51°54' E 004°23'5 9.3
2017-Jul-14 09:01N 51°55' E 004°30'5 9.8
2017-Jul-14 08:30N 51°53' E 004°37'5 9.4
2017-Jul-14 08:01N 51°49' E 004°42'510.6
2017-Jul-14 07:30N 51°49' E 004°50'5 9.9
2017-Jul-14 07:01N 51°49' E 004°58'1210.2
2017-Jul-14 05:47N 51°49' E 005°18'7 8.8
2017-Jul-14 04:57N 51°53' E 005°28'511.2
2017-Jul-14 04:30N 51°54' E 005°37'611.3
2017-Jul-14 04:00N 51°53' E 005°46'5 9.5
2017-Jul-14 03:30N 51°52' E 005°53'4 8.2
2017-Jul-14 03:00N 51°53' E 005°60'510.3
2017-Jul-14 02:31N 51°51' E 006°07'510.5
2017-Jul-14 02:01N 51°49' E 006°16'510.4
2017-Jul-14 01:30N 51°45' E 006°21'4 7.0
2017-Jul-14 01:00N 51°43' E 006°25'5 9.5
2017-Jul-14 00:31N 51°40' E 006°30'4 7.2
2017-Jul-14 00:00N 51°38' E 006°35'4 7.6
2017-Jul-13 23:30N 51°34' E 006°38'4 7.3
2017-Jul-13 23:00N 51°32' E 006°42'3 6.5
2017-Jul-13 22:30N 51°28' E 006°42'2 4.1
2017-Jul-13 22:00N 51°27' E 006°45'0 0.1
2017-Jul-13 21:30N 51°27' E 006°45'0 0.0
2017-Jul-13 21:01N 51°27' E 006°45'0 0.0
2017-Jul-13 20:30N 51°27' E 006°45'0 0.0
2017-Jul-13 19:59N 51°27' E 006°45'0 0.0
2017-Jul-13 19:29N 51°27' E 006°45'0 0.1
2017-Jul-13 18:59N 51°27' E 006°45'0 0.0
2017-Jul-13 18:26N 51°27' E 006°45'0 0.0
2017-Jul-13 17:59N 51°27' E 006°45'0 0.0
2017-Jul-13 17:29N 51°27' E 006°45'0 0.0
2017-Jul-13 16:59N 51°27' E 006°45'0 0.0
2017-Jul-13 16:29N 51°27' E 006°45'0 0.0
2017-Jul-13 15:59N 51°27' E 006°45'0 0.1
2017-Jul-13 15:29N 51°27' E 006°45'0 0.1
2017-Jul-13 14:59N 51°27' E 006°45'0 0.0
2017-Jul-13 14:29N 51°27' E 006°45'0 0.0
2017-Jul-13 13:59N 51°27' E 006°45'0 0.0
2017-Jul-13 13:26N 51°27' E 006°45'0 0.0
2017-Jul-13 12:59N 51°27' E 006°45'0 0.0
2017-Jul-13 12:29N 51°27' E 006°45'0 0.0
2017-Jul-13 11:59N 51°27' E 006°45'0 0.0
2017-Jul-13 11:30N 51°27' E 006°45'0 0.2
2017-Jul-13 11:01N 51°27' E 006°45'2 4.0
2017-Jul-13 10:30N 51°28' E 006°42'2 4.3
2017-Jul-13 10:00N 51°30' E 006°43'3 6.1
2017-Jul-13 09:30N 51°33' E 006°41'2 3.8
2017-Jul-13 08:53N 51°34' E 006°37'2 5.8
2017-Jul-13 08:30N 51°36' E 006°36'3 6.1
2017-Jul-13 08:00N 51°39' E 006°36'3 6.8
2017-Jul-13 07:30N 51°40' E 006°31'3 6.3
2017-Jul-13 06:57N 51°42' E 006°27'2 5.0
2017-Jul-13 06:30N 51°44' E 006°25'  
Track history (hours):
 
Tides and Currents Weather Stations Pressure Air Temp Water Temp Dewpoint Dewpoint Depression Visibility Wind Speed Wind Dir Waves Ship Positions

Wilson Lahn

Last reported at 2017-Jul-23 06:30 UTC. Time now 2017-Jul-23 06:42 UTC.
Position N 62°36' E 005°42'.

Length 83 m; draft 4.7 m.

Type: Cargo ship. MMSI: 314259000.

Date/timePositionNaut miles runAvg speedWind from/ knotsBaromVisibWave heightAir tempDewpointWater temp
2017-Jul-23 06:30N 62°36' E 005°42'611.6
2017-Jul-23 06:00N 62°40' E 005°50'510.2
2017-Jul-23 05:30N 62°44' E 005°58'510.2
2017-Jul-23 05:00N 62°48' E 006°05'510.0
2017-Jul-23 04:30N 62°51' E 006°12'510.0
2017-Jul-23 04:00N 62°55' E 006°19'510.2
2017-Jul-23 03:30N 62°59' E 006°27'510.2
2017-Jul-23 03:01N 63°03' E 006°34'510.2
2017-Jul-23 02:30N 63°06' E 006°42'510.4
2017-Jul-23 02:00N 63°10' E 006°50'510.1
2017-Jul-23 01:30N 63°14' E 006°57'510.2
2017-Jul-23 01:00N 63°18' E 007°05'510.1
2017-Jul-23 00:30N 63°22' E 007°12'510.1
2017-Jul-23 00:00N 63°26' E 007°19'5 9.6
2017-Jul-22 23:30N 63°29' E 007°26'5 9.6
2017-Jul-22 23:00N 63°33' E 007°34'5 9.8
2017-Jul-22 22:30N 63°36' E 007°41'5 9.8
2017-Jul-22 22:00N 63°40' E 007°48'5 9.9
2017-Jul-22 21:30N 63°44' E 007°56'5 9.8
2017-Jul-22 21:00N 63°47' E 008°03'5 9.8
2017-Jul-22 20:30N 63°51' E 008°10'5 9.7
2017-Jul-22 20:00N 63°55' E 008°18'5 9.7
2017-Jul-22 19:30N 63°58' E 008°25'83 9.4
2017-Jul-22 10:41N 65°03' E 010°26'2 9.5
2017-Jul-22 10:30N 65°04' E 010°27'5 9.4
2017-Jul-22 10:00N 65°09' E 010°31'5 9.4
2017-Jul-22 09:30N 65°13' E 010°35'5 9.6
2017-Jul-22 09:00N 65°18' E 010°39'5 9.7
2017-Jul-22 08:29N 65°22' E 010°44'5 9.6
2017-Jul-22 08:00N 65°26' E 010°49'5 9.4
2017-Jul-22 07:30N 65°31' E 010°53'5 9.1
2017-Jul-22 07:00N 65°35' E 010°56'43 9.6
2017-Jul-22 02:30N 66°14' E 011°43'5 9.9
2017-Jul-22 02:00N 66°15' E 011°55'5 9.8
2017-Jul-22 01:30N 66°16' E 012°07'510.1
2017-Jul-22 01:00N 66°16' E 012°19'510.2
2017-Jul-22 00:31N 66°15' E 012°31'510.0
2017-Jul-22 00:00N 66°17' E 012°43'611.1
2017-Jul-21 23:30N 66°20' E 012°54'510.0
2017-Jul-21 23:00N 66°25' E 012°59'510.5
2017-Jul-21 22:30N 66°30' E 012°59'5 8.9
2017-Jul-21 22:00N 66°34' E 013°05'510.9
2017-Jul-21 21:30N 66°39' E 013°07'611.1
2017-Jul-21 21:00N 66°45' E 013°12'510.8
2017-Jul-21 20:30N 66°48' E 013°23'611.2
2017-Jul-21 20:00N 66°49' E 013°37'611.2
2017-Jul-21 19:30N 66°48' E 013°51'2 3.8
2017-Jul-21 18:58N 66°49' E 013°56'0 0.0
2017-Jul-21 18:23N 66°49' E 013°56'0 0.0
2017-Jul-21 17:59N 66°49' E 013°56'0 0.0
2017-Jul-21 17:29N 66°49' E 013°56'0 0.0
2017-Jul-21 16:41N 66°49' E 013°56'0 0.0
2017-Jul-21 16:23N 66°49' E 013°56'0 0.0
2017-Jul-21 14:05N 66°49' E 013°56'0 0.0
2017-Jul-21 13:35N 66°49' E 013°56'0 0.1
2017-Jul-21 13:29N 66°49' E 013°56'0 0.0
2017-Jul-21 12:53N 66°49' E 013°56'0 0.0
2017-Jul-21 12:29N 66°49' E 013°56'0 0.0
2017-Jul-21 11:56N 66°49' E 013°56'0 0.0
2017-Jul-21 09:14N 66°49' E 013°56'0 0.0
2017-Jul-20 21:53N 66°49' E 013°56'0 0.6
2017-Jul-20 21:30N 66°48' E 013°56'510.0
2017-Jul-20 21:00N 66°49' E 013°43'612.0
2017-Jul-20 20:30N 66°49' E 013°28'611.9
2017-Jul-20 20:00N 66°46' E 013°15'612.0
2017-Jul-20 19:30N 66°41' E 013°08'611.6
2017-Jul-20 18:59N 66°35' E 013°04'5 9.8
2017-Jul-20 18:30N 66°31' E 012°58'612.4
2017-Jul-20 18:00N 66°25' E 012°59'610.9
2017-Jul-20 17:30N 66°20' E 012°52'611.8
2017-Jul-20 17:00N 66°16' E 012°40'4 8.3
2017-Jul-20 16:30N 66°15' E 012°31'1 1.3
2017-Jul-20 16:00N 66°15' E 012°29'1 1.4
2017-Jul-20 15:30N 66°16' E 012°31'1 1.1
2017-Jul-20 15:00N 66°16' E 012°32'1 0.9
2017-Jul-20 14:00N 66°15' E 012°32'510.4
2017-Jul-20 13:30N 66°16' E 012°20'510.6
2017-Jul-20 13:00N 66°16' E 012°06'511.0
2017-Jul-20 12:30N 66°15' E 011°53'4210.1
2017-Jul-20 08:20N 65°39' E 010°60'412.0
2017-Jul-20 08:00N 65°35' E 010°56'612.1
2017-Jul-20 07:30N 65°29' E 010°51'612.0
2017-Jul-20 07:00N 65°24' E 010°45'611.7
2017-Jul-20 06:30N 65°18' E 010°40'611.7
2017-Jul-20 06:00N 65°13' E 010°35'611.9
2017-Jul-20 05:30N 65°07' E 010°30'4212.1
2017-Jul-20 02:04N 64°29' E 009°55'112.3
2017-Jul-20 02:00N 64°28' E 009°54'612.0
2017-Jul-20 01:30N 64°22' E 009°49'611.6
2017-Jul-20 01:00N 64°17' E 009°44'611.5
2017-Jul-20 00:29N 64°11' E 009°39'611.7
2017-Jul-20 00:00N 64°06' E 009°35'611.8
2017-Jul-19 23:30N 64°00' E 009°30'612.0
2017-Jul-19 23:01N 63°55' E 009°25'612.1
2017-Jul-19 22:30N 63°49' E 009°20'612.0
2017-Jul-19 22:01N 63°44' E 009°15'612.0
2017-Jul-19 21:30N 63°38' E 009°17'612.4
2017-Jul-19 21:00N 63°37' E 009°31'612.6
2017-Jul-19 20:30N 63°40' E 009°44'611.8
2017-Jul-19 20:00N 63°34' E 009°51'612.4
2017-Jul-19 19:30N 63°29' E 009°58'612.0
2017-Jul-19 19:01N 63°29' E 010°11'510.0
2017-Jul-19 18:30N 63°28' E 010°22'2 4.3
2017-Jul-19 18:00N 63°27' E 010°25'0 0.0
2017-Jul-19 17:28N 63°27' E 010°25'0 0.0
2017-Jul-19 16:58N 63°27' E 010°25'0 0.0
2017-Jul-19 16:28N 63°27' E 010°25'0 0.0
2017-Jul-19 15:58N 63°27' E 010°25'0 0.0
2017-Jul-19 15:28N 63°27' E 010°25'0 0.0
2017-Jul-19 14:58N 63°27' E 010°25'0 0.0
2017-Jul-19 14:28N 63°27' E 010°25'0 0.0
2017-Jul-19 13:58N 63°27' E 010°25'0 0.0
2017-Jul-19 13:28N 63°27' E 010°25'0 0.0
2017-Jul-19 13:00N 63°27' E 010°25'1 1.9
2017-Jul-19 12:31N 63°27' E 010°24'5 9.2
2017-Jul-19 12:01N 63°28' E 010°14'612.2
2017-Jul-19 11:30N 63°29' E 010°01'510.9
2017-Jul-19 11:00N 63°33' E 009°52'611.8
2017-Jul-19 10:30N 63°38' E 009°47'5 9.7
2017-Jul-19 10:01N 63°38' E 009°37'612.3
2017-Jul-19 09:31N 63°35' E 009°25'612.8
2017-Jul-19 09:00N 63°32' E 009°12'612.2
2017-Jul-19 08:30N 63°29' E 008°60'612.2
2017-Jul-19 08:00N 63°27' E 008°47'612.6
2017-Jul-19 07:30N 63°24' E 008°34'612.4
2017-Jul-19 07:00N 63°21' E 008°22'612.6
2017-Jul-19 06:30N 63°17' E 008°12'612.5
2017-Jul-19 06:00N 63°14' E 007°59'611.9
2017-Jul-19 05:31N 63°14' E 007°46'612.0
2017-Jul-19 05:00N 63°15' E 007°33'612.1
2017-Jul-19 04:30N 63°12' E 007°21'612.9
2017-Jul-19 04:00N 63°09' E 007°09'713.0
2017-Jul-19 03:30N 63°05' E 006°57'612.2
2017-Jul-19 03:00N 63°01' E 006°47'611.8
2017-Jul-19 02:30N 62°58' E 006°36'611.5
2017-Jul-19 02:00N 62°54' E 006°26'612.0
2017-Jul-19 01:30N 62°51' E 006°15'611.8
2017-Jul-19 01:00N 62°47' E 006°06'611.6
2017-Jul-19 00:30N 62°43' E 005°57'611.8
2017-Jul-19 00:00N 62°38' E 005°48'611.9
2017-Jul-18 23:30N 62°34' E 005°39'612.0
2017-Jul-18 23:00N 62°30' E 005°31'611.8
2017-Jul-18 22:30N 62°25' E 005°22'611.9
2017-Jul-18 22:00N 62°21' E 005°13'611.9
2017-Jul-18 21:30N 62°16' E 005°06'611.8
2017-Jul-18 21:00N 62°11' E 004°59'611.9
2017-Jul-18 20:30N 62°06' E 004°52'611.9
2017-Jul-18 20:00N 62°01' E 004°46'612.1
2017-Jul-18 19:30N 61°55' E 004°42'611.9
2017-Jul-18 19:00N 61°49' E 004°38'611.8
2017-Jul-18 18:30N 61°44' E 004°33'611.5
2017-Jul-18 18:00N 61°38' E 004°30'611.7
2017-Jul-18 17:30N 61°33' E 004°29'611.8
2017-Jul-18 17:00N 61°27' E 004°28'612.0
2017-Jul-18 16:30N 61°21' E 004°28'612.1
2017-Jul-18 16:00N 61°15' E 004°28'612.1
2017-Jul-18 15:30N 61°09' E 004°27'612.4
2017-Jul-18 15:00N 61°02' E 004°27'1211.6
2017-Jul-18 14:00N 60°52' E 004°37'611.3
2017-Jul-18 13:31N 60°48' E 004°45'612.4
2017-Jul-18 13:00N 60°42' E 004°50'612.4
2017-Jul-18 12:30N 60°36' E 004°54'612.6
2017-Jul-18 12:00N 60°30' E 004°58'612.3
2017-Jul-18 11:30N 60°25' E 005°05'511.0
2017-Jul-18 11:01N 60°20' E 005°10'1 2.4
2017-Jul-18 10:30N 60°21' E 005°08'0 0.0
2017-Jul-18 10:00N 60°21' E 005°08'0 0.0
2017-Jul-18 09:30N 60°21' E 005°08'0 0.0
2017-Jul-18 09:00N 60°21' E 005°08'0 0.0
2017-Jul-18 08:30N 60°21' E 005°08'0 0.0
2017-Jul-18 08:00N 60°21' E 005°08'0 0.0
2017-Jul-18 07:30N 60°21' E 005°08'0 0.0
2017-Jul-18 07:00N 60°21' E 005°08'0 0.0
2017-Jul-18 06:30N 60°21' E 005°08'0 0.0
2017-Jul-18 06:00N 60°21' E 005°08'0 0.0
2017-Jul-18 05:30N 60°21' E 005°08'0 0.0
2017-Jul-18 05:00N 60°21' E 005°08'0 0.0
2017-Jul-18 04:30N 60°21' E 005°08'0 0.0
2017-Jul-18 04:00N 60°21' E 005°08'0 0.0
2017-Jul-18 03:30N 60°21' E 005°08'0 0.0
2017-Jul-18 03:00N 60°21' E 005°08'0 0.0
2017-Jul-18 02:30N 60°21' E 005°08'0 0.0
2017-Jul-18 02:00N 60°21' E 005°08'0 0.0
2017-Jul-18 01:30N 60°21' E 005°08'0 0.0
2017-Jul-18 01:00N 60°21' E 005°08'0 0.0
2017-Jul-18 00:30N 60°21' E 005°08'0 0.0
2017-Jul-18 00:00N 60°21' E 005°08'0 0.0
2017-Jul-17 23:30N 60°21' E 005°08'0 0.0
2017-Jul-17 23:00N 60°21' E 005°08'0 0.0
2017-Jul-17 22:30N 60°21' E 005°08'0 0.0
2017-Jul-17 22:00N 60°21' E 005°08'0 0.0
2017-Jul-17 21:30N 60°21' E 005°08'0 0.0
2017-Jul-17 21:00N 60°21' E 005°08'0 0.0
2017-Jul-17 20:30N 60°21' E 005°08'0 0.0
2017-Jul-17 19:57N 60°21' E 005°08'1 1.2
2017-Jul-17 19:30N 60°20' E 005°08'510.6
2017-Jul-17 19:00N 60°15' E 005°09'510.5
2017-Jul-17 18:30N 60°10' E 005°15'611.0
2017-Jul-17 18:00N 60°05' E 005°19'611.4
2017-Jul-17 17:30N 59°60' E 005°21'611.1
2017-Jul-17 17:00N 59°56' E 005°29'510.5
2017-Jul-17 16:30N 59°51' E 005°33'510.8
2017-Jul-17 16:00N 59°46' E 005°32'611.8
2017-Jul-17 15:30N 59°41' E 005°24'611.7
2017-Jul-17 15:00N 59°36' E 005°17'611.9
2017-Jul-17 14:29N 59°31' E 005°13'611.2
2017-Jul-17 14:00N 59°25' E 005°14'611.2
2017-Jul-17 13:29N 59°20' E 005°19'611.5
2017-Jul-17 13:00N 59°15' E 005°21'4 7.9
2017-Jul-17 12:30N 59°18' E 005°23'1 1.8
2017-Jul-17 11:59N 59°19' E 005°23'0 0.0
2017-Jul-17 11:29N 59°19' E 005°23'0 0.0
2017-Jul-17 10:59N 59°19' E 005°23'0 0.0
2017-Jul-17 10:29N 59°19' E 005°23'0 0.0
2017-Jul-17 09:59N 59°19' E 005°23'0 0.0
2017-Jul-17 09:26N 59°19' E 005°23'0 0.0
2017-Jul-17 08:59N 59°19' E 005°23'0 0.0
2017-Jul-17 08:26N 59°19' E 005°23'0 0.0
2017-Jul-17 07:56N 59°19' E 005°23'0 0.0
2017-Jul-17 07:29N 59°19' E 005°23'0 0.0
2017-Jul-17 06:59N 59°19' E 005°23'0 0.0
2017-Jul-17 06:29N 59°19' E 005°23'0 0.0
2017-Jul-17 05:59N 59°19' E 005°23'0 0.0
2017-Jul-17 05:29N 59°19' E 005°23'0 0.0
2017-Jul-17 04:59N 59°19' E 005°23'0 0.0
2017-Jul-17 04:29N 59°19' E 005°23'0 0.0
2017-Jul-17 03:59N 59°19' E 005°23'0 0.0
2017-Jul-17 03:29N 59°19' E 005°23'0 0.0
2017-Jul-17 02:59N 59°19' E 005°23'0 0.7
2017-Jul-17 02:30N 59°19' E 005°23'510.2
2017-Jul-17 02:00N 59°14' E 005°22'611.5
2017-Jul-17 01:30N 59°08' E 005°21'611.9
2017-Jul-17 01:00N 59°02' E 005°21'612.1
2017-Jul-17 00:31N 58°56' E 005°19'612.3
2017-Jul-17 00:00N 58°50' E 005°17'612.5
2017-Jul-16 23:30N 58°44' E 005°15'612.2
2017-Jul-16 23:00N 58°38' E 005°14'612.2
2017-Jul-16 22:30N 58°32' E 005°12'611.7
2017-Jul-16 22:00N 58°26' E 005°11'32311.2
2017-Jul-15 17:15N 53°04' E 004°25'311.6
2017-Jul-15 16:59N 53°02' E 004°22'511.5
2017-Jul-15 16:30N 52°57' E 004°18'611.3
2017-Jul-15 16:00N 52°52' E 004°13'611.1
2017-Jul-15 15:30N 52°47' E 004°09'611.0
2017-Jul-15 15:00N 52°42' E 004°05'1110.9
2017-Jul-15 14:00N 52°32' E 003°56'510.7
2017-Jul-15 13:30N 52°27' E 003°54'510.6
2017-Jul-15 12:59N 52°22' E 003°53'510.5
2017-Jul-15 12:29N 52°17' E 003°53'510.7
2017-Jul-15 12:00N 52°11' E 003°54'510.8
2017-Jul-15 11:30N 52°06' E 003°56'611.2
2017-Jul-15 11:00N 52°01' E 004°00'713.1
2017-Jul-15 10:31N 51°58' E 004°09'714.1
2017-Jul-15 10:01N 51°54' E 004°19'4 7.7
2017-Jul-15 09:30N 51°55' E 004°25'0 0.0
2017-Jul-15 09:00N 51°55' E 004°25'0 0.0
2017-Jul-15 08:30N 51°55' E 004°25'0 0.0
2017-Jul-15 08:00N 51°55' E 004°25'0 0.0
2017-Jul-15 07:30N 51°55' E 004°25'0 0.0
2017-Jul-15 07:00N 51°55' E 004°25'0 0.0
2017-Jul-15 06:30N 51°55' E 004°25'0 0.0
2017-Jul-15 06:00N 51°55' E 004°25'0 0.0
2017-Jul-15 05:30N 51°55' E 004°25'0 0.0
2017-Jul-15 05:00N 51°55' E 004°25'0 0.0
2017-Jul-15 04:30N 51°55' E 004°25'0 0.0
2017-Jul-15 04:00N 51°55' E 004°25'0 0.0
2017-Jul-15 03:30N 51°55' E 004°25'0 0.0
2017-Jul-15 03:00N 51°55' E 004°25'0 0.0
2017-Jul-15 02:30N 51°55' E 004°25'0 0.0
2017-Jul-15 02:00N 51°55' E 004°25'0 0.0
2017-Jul-15 01:30N 51°55' E 004°25'0 0.0
2017-Jul-15 01:00N 51°55' E 004°25'0 0.0
2017-Jul-15 00:30N 51°55' E 004°25'0 0.0
2017-Jul-15 00:00N 51°55' E 004°25'0 0.0
2017-Jul-14 23:30N 51°55' E 004°25'0 0.0
2017-Jul-14 23:00N 51°55' E 004°25'0 0.0
2017-Jul-14 22:30N 51°55' E 004°25'0 0.0
2017-Jul-14 22:00N 51°55' E 004°25'0 0.0
2017-Jul-14 21:30N 51°55' E 004°25'0 0.0
2017-Jul-14 21:00N 51°55' E 004°25'0 0.0
2017-Jul-14 20:30N 51°55' E 004°25'0 0.0
2017-Jul-14 20:00N 51°55' E 004°25'0 0.0
2017-Jul-14 19:30N 51°55' E 004°25'0 0.0
2017-Jul-14 19:00N 51°55' E 004°25'0 0.0
2017-Jul-14 18:30N 51°55' E 004°25'0 0.0
2017-Jul-14 18:00N 51°55' E 004°25'0 0.0
2017-Jul-14 17:30N 51°55' E 004°25'0 0.0
2017-Jul-14 17:00N 51°55' E 004°25'0 0.0
2017-Jul-14 16:30N 51°55' E 004°25'0 0.0
2017-Jul-14 16:00N 51°55' E 004°25'0 0.1
2017-Jul-14 15:29N 51°55' E 004°25'1 3.0
2017-Jul-14 15:00N 51°54' E 004°23'0 0.0
2017-Jul-14 14:30N 51°54' E 004°23'0 0.0
2017-Jul-14 14:00N 51°54' E 004°23'0 0.0
2017-Jul-14 13:30N 51°54' E 004°23'0 0.0
2017-Jul-14 13:00N 51°54' E 004°23'0 0.0
2017-Jul-14 12:30N 51°54' E 004°23'0 0.0
2017-Jul-14 12:00N 51°54' E 004°23'0 0.0
2017-Jul-14 11:30N 51°54' E 004°23'0 0.0
2017-Jul-14 11:00N 51°54' E 004°23'0 0.0
2017-Jul-14 10:30N 51°54' E 004°23'0 0.0
2017-Jul-14 10:00N 51°54' E 004°23'0 0.1
2017-Jul-14 09:30N 51°54' E 004°23'5 9.3
2017-Jul-14 09:01N 51°55' E 004°30'5 9.8
2017-Jul-14 08:30N 51°53' E 004°37'5 9.4
2017-Jul-14 08:01N 51°49' E 004°42'510.6
2017-Jul-14 07:30N 51°49' E 004°50'5 9.9
2017-Jul-14 07:01N 51°49' E 004°58'1210.2
2017-Jul-14 05:47N 51°49' E 005°18'7 8.8
2017-Jul-14 04:57N 51°53' E 005°28'511.2
2017-Jul-14 04:30N 51°54' E 005°37'611.3
2017-Jul-14 04:00N 51°53' E 005°46'5 9.5
2017-Jul-14 03:30N 51°52' E 005°53'4 8.2
2017-Jul-14 03:00N 51°53' E 005°60'510.3
2017-Jul-14 02:31N 51°51' E 006°07'510.5
2017-Jul-14 02:01N 51°49' E 006°16'510.4
2017-Jul-14 01:30N 51°45' E 006°21'4 7.0
2017-Jul-14 01:00N 51°43' E 006°25'5 9.5
2017-Jul-14 00:31N 51°40' E 006°30'4 7.2
2017-Jul-14 00:00N 51°38' E 006°35'4 7.6
2017-Jul-13 23:30N 51°34' E 006°38'4 7.3
2017-Jul-13 23:00N 51°32' E 006°42'3 6.5
2017-Jul-13 22:30N 51°28' E 006°42'2 4.1
2017-Jul-13 22:00N 51°27' E 006°45'0 0.1
2017-Jul-13 21:30N 51°27' E 006°45'0 0.0
2017-Jul-13 21:01N 51°27' E 006°45'0 0.0
2017-Jul-13 20:30N 51°27' E 006°45'0 0.0
2017-Jul-13 19:59N 51°27' E 006°45'0 0.0
2017-Jul-13 19:29N 51°27' E 006°45'0 0.1
2017-Jul-13 18:59N 51°27' E 006°45'0 0.0
2017-Jul-13 18:26N 51°27' E 006°45'0 0.0
2017-Jul-13 17:59N 51°27' E 006°45'0 0.0
2017-Jul-13 17:29N 51°27' E 006°45'0 0.0
2017-Jul-13 16:59N 51°27' E 006°45'0 0.0
2017-Jul-13 16:29N 51°27' E 006°45'0 0.0
2017-Jul-13 15:59N 51°27' E 006°45'0 0.1
2017-Jul-13 15:29N 51°27' E 006°45'0 0.1
2017-Jul-13 14:59N 51°27' E 006°45'0 0.0
2017-Jul-13 14:29N 51°27' E 006°45'0 0.0
2017-Jul-13 13:59N 51°27' E 006°45'0 0.0
2017-Jul-13 13:26N 51°27' E 006°45'0 0.0
2017-Jul-13 12:59N 51°27' E 006°45'0 0.0
2017-Jul-13 12:29N 51°27' E 006°45'0 0.0
2017-Jul-13 11:59N 51°27' E 006°45'0 0.0
2017-Jul-13 11:30N 51°27' E 006°45'0 0.2
2017-Jul-13 11:01N 51°27' E 006°45'2 4.0
2017-Jul-13 10:30N 51°28' E 006°42'2 4.3
2017-Jul-13 10:00N 51°30' E 006°43'3 6.1
2017-Jul-13 09:30N 51°33' E 006°41'2 3.8
2017-Jul-13 08:53N 51°34' E 006°37'2 5.8
2017-Jul-13 08:30N 51°36' E 006°36'3 6.1
2017-Jul-13 08:00N 51°39' E 006°36'3 6.8
2017-Jul-13 07:30N 51°40' E 006°31'3 6.3
2017-Jul-13 06:57N 51°42' E 006°27'2 5.0
2017-Jul-13 06:30N 51°44' E 006°25'  

Dump ship's entire track history